createdAt,value
2018-12-13T00:00:45.927Z,12.90
2018-12-13T00:01:46.032Z,12.50
2018-12-13T00:02:45.794Z,12.90
2018-12-13T00:03:45.738Z,13.10
2018-12-13T00:04:45.690Z,11.90
2018-12-13T00:05:45.632Z,12.90
2018-12-13T00:06:45.603Z,12.80
2018-12-13T00:07:45.522Z,12.60
2018-12-13T00:08:45.634Z,12.60
2018-12-13T00:09:45.413Z,12.40
2018-12-13T00:10:45.358Z,13.30
2018-12-13T00:11:45.304Z,11.70
2018-12-13T00:12:45.252Z,13.50
2018-12-13T00:13:45.220Z,12.20
2018-12-13T00:14:45.140Z,12.60
2018-12-13T00:15:45.123Z,12.80
2018-12-13T00:16:45.031Z,12.60
2018-12-13T00:17:45.142Z,12.40
2018-12-13T00:18:44.924Z,12.80
2018-12-13T00:19:44.868Z,12.30
2018-12-13T00:20:44.815Z,11.90
2018-12-13T00:21:44.762Z,12.00
2018-12-13T00:22:44.708Z,12.30
2018-12-13T00:23:44.651Z,12.30
2018-12-13T00:24:44.737Z,11.80
2018-12-13T00:25:44.544Z,11.80
2018-12-13T00:26:44.490Z,12.70
2018-12-13T00:27:44.430Z,12.50
2018-12-13T00:28:44.382Z,12.40
2018-12-13T00:29:44.324Z,12.50
2018-12-13T00:30:44.270Z,13.10
2018-12-13T00:31:44.442Z,13.20
2018-12-13T00:32:44.163Z,13.10
2018-12-13T00:33:44.111Z,13.50
2018-12-13T00:34:44.053Z,13.10
2018-12-13T00:35:43.999Z,13.30
2018-12-13T00:36:43.970Z,13.20
2018-12-13T00:37:43.893Z,13.00
2018-12-13T00:38:44.055Z,13.60
2018-12-13T00:39:43.788Z,12.20
2018-12-13T00:40:43.728Z,12.00
2018-12-13T00:41:43.672Z,12.20
2018-12-13T00:42:43.619Z,12.00
2018-12-13T00:43:43.589Z,12.30
2018-12-13T00:44:43.511Z,12.30
2018-12-13T00:45:43.492Z,12.80
2018-12-13T00:46:43.404Z,12.90
2018-12-13T00:47:43.561Z,12.40
2018-12-13T00:48:43.294Z,12.70
2018-12-13T00:49:43.239Z,12.60
2018-12-13T00:50:43.185Z,13.20
2018-12-13T00:51:43.130Z,12.70
2018-12-13T00:52:43.100Z,12.70
2018-12-13T00:53:43.021Z,12.50
2018-12-13T00:54:43.162Z,12.30
2018-12-13T00:55:42.914Z,12.80
2018-12-13T00:56:42.859Z,12.80
2018-12-13T00:57:42.804Z,13.00
2018-12-13T00:58:42.750Z,12.30
2018-12-13T00:59:42.697Z,12.60
2018-12-13T01:00:42.643Z,12.70
2018-12-13T01:01:42.753Z,13.20
2018-12-13T01:02:42.536Z,13.70
2018-12-13T01:03:42.480Z,13.20
2018-12-13T01:04:42.426Z,13.80
2018-12-13T01:05:42.377Z,13.70
2018-12-13T01:06:46.015Z,13.60
2018-12-13T01:07:42.262Z,13.80
2018-12-13T01:08:42.373Z,13.60
2018-12-13T01:09:42.157Z,13.50
2018-12-13T01:10:42.100Z,13.20
2018-12-13T01:11:42.046Z,14.40
2018-12-13T01:12:41.997Z,13.70
2018-12-13T01:13:41.963Z,14.20
2018-12-13T01:14:41.884Z,13.20
2018-12-13T01:15:41.871Z,13.60
2018-12-13T01:16:41.774Z,13.20
2018-12-13T01:17:41.871Z,13.20
2018-12-13T01:18:41.667Z,14.50
2018-12-13T01:19:41.611Z,13.70
2018-12-13T01:20:41.748Z,14.50
2018-12-13T01:21:41.504Z,14.10
2018-12-13T01:22:41.479Z,13.10
2018-12-13T01:23:41.396Z,13.50
2018-12-13T01:24:41.570Z,14.10
2018-12-13T01:25:41.285Z,14.10
2018-12-13T01:26:41.232Z,14.50
2018-12-13T01:27:41.178Z,14.20
2018-12-13T01:28:41.123Z,14.30
2018-12-13T01:29:41.070Z,14.60
2018-12-13T01:30:41.018Z,14.20
2018-12-13T01:31:40.986Z,14.20
2018-12-13T01:32:40.907Z,14.40
2018-12-13T01:33:41.069Z,15.00
2018-12-13T01:34:40.799Z,14.50
2018-12-13T01:35:40.742Z,15.00
2018-12-13T01:36:40.690Z,15.00
2018-12-13T01:37:40.635Z,14.30
2018-12-13T01:38:40.581Z,15.20
2018-12-13T01:39:40.527Z,14.90
2018-12-13T01:40:40.500Z,14.90
2018-12-13T01:41:40.421Z,15.30
2018-12-13T01:42:40.582Z,15.00
2018-12-13T01:43:40.312Z,15.80
2018-12-13T01:44:40.255Z,15.50
2018-12-13T01:45:40.202Z,16.10
2018-12-13T01:46:40.146Z,16.60
2018-12-13T01:47:40.093Z,16.30
2018-12-13T01:48:40.041Z,15.90
2018-12-13T01:49:40.010Z,16.50
2018-12-13T01:50:39.929Z,16.40
2018-12-13T01:51:40.091Z,16.50
2018-12-13T01:52:39.820Z,16.70
2018-12-13T01:53:39.766Z,16.90
2018-12-13T01:54:39.713Z,16.00
2018-12-13T01:55:39.658Z,16.90
2018-12-13T01:56:39.605Z,17.10
2018-12-13T01:57:39.550Z,16.50
2018-12-13T01:58:39.522Z,16.50
2018-12-13T01:59:39.440Z,18.10
2018-12-13T02:00:39.583Z,17.00
2018-12-13T02:01:39.337Z,17.10
2018-12-13T02:02:39.292Z,18.80
2018-12-13T02:03:39.223Z,19.40
2018-12-13T02:04:39.170Z,19.20
2018-12-13T02:05:39.117Z,18.50
2018-12-13T02:06:39.066Z,18.10
2018-12-13T02:07:39.007Z,17.70
2018-12-13T02:08:38.953Z,18.60
2018-12-13T02:09:38.921Z,18.40
2018-12-13T02:10:38.845Z,18.60
2018-12-13T02:11:38.992Z,19.00
2018-12-13T02:12:38.734Z,19.30
2018-12-13T02:13:38.680Z,20.30
2018-12-13T02:14:38.626Z,20.10
2018-12-13T02:15:38.569Z,19.40
2018-12-13T02:16:38.518Z,19.80
2018-12-13T02:17:38.474Z,19.00
2018-12-13T02:18:38.426Z,19.10
2018-12-13T02:19:38.355Z,19.70
2018-12-13T02:20:38.499Z,19.50
2018-12-13T02:21:38.249Z,19.50
2018-12-13T02:22:38.192Z,19.30
2018-12-13T02:23:38.135Z,20.70
2018-12-13T02:24:38.081Z,20.80
2018-12-13T02:25:38.064Z,20.30
2018-12-13T02:26:37.973Z,19.70
2018-12-13T02:27:37.946Z,20.20
2018-12-13T02:28:37.863Z,20.00
2018-12-13T02:29:37.998Z,20.80
2018-12-13T02:30:37.760Z,19.90
2018-12-13T02:31:37.702Z,19.90
2018-12-13T02:32:37.646Z,20.40
2018-12-13T02:33:37.593Z,20.40
2018-12-13T02:34:37.539Z,20.30
2018-12-13T02:35:37.490Z,20.20
2018-12-13T02:36:37.453Z,21.10
2018-12-13T02:37:37.383Z,19.90
2018-12-13T02:38:37.501Z,20.20
2018-12-13T02:39:37.264Z,20.80
2018-12-13T02:40:37.214Z,19.90
2018-12-13T02:41:37.158Z,20.10
2018-12-13T02:42:37.103Z,18.90
2018-12-13T02:43:37.049Z,19.70
2018-12-13T02:44:36.993Z,20.00
2018-12-13T02:45:36.966Z,19.00
2018-12-13T02:46:36.885Z,18.10
2018-12-13T02:47:37.009Z,18.90
2018-12-13T02:48:36.778Z,18.70
2018-12-13T02:49:36.731Z,18.10
2018-12-13T02:50:36.669Z,18.50
2018-12-13T02:51:36.617Z,18.30
2018-12-13T02:52:36.561Z,17.90
2018-12-13T02:53:36.506Z,16.80
2018-12-13T02:54:36.475Z,17.30
2018-12-13T02:55:36.398Z,17.70
2018-12-13T02:56:36.507Z,16.80
2018-12-13T02:57:36.307Z,17.60
2018-12-13T02:58:36.238Z,17.20
2018-12-13T02:59:36.181Z,16.50
2018-12-13T03:00:36.127Z,17.20
2018-12-13T03:01:36.156Z,17.20
2018-12-13T03:02:36.016Z,16.90
2018-12-13T03:03:35.962Z,17.70
2018-12-13T03:04:35.906Z,16.90
2018-12-13T03:05:35.879Z,16.90
2018-12-13T03:06:35.802Z,16.40
2018-12-13T03:07:35.922Z,16.60
2018-12-13T03:08:35.692Z,16.40
2018-12-13T03:09:35.714Z,16.20
2018-12-13T03:10:35.581Z,17.90
2018-12-13T03:11:35.528Z,17.00
2018-12-13T03:12:35.473Z,17.00
2018-12-13T03:13:35.419Z,16.30
2018-12-13T03:14:35.367Z,16.30
2018-12-13T03:15:35.315Z,16.70
2018-12-13T03:16:35.422Z,16.20
2018-12-13T03:17:35.203Z,16.00
2018-12-13T03:18:35.146Z,16.40
2018-12-13T03:19:35.093Z,15.90
2018-12-13T03:20:35.044Z,16.00
2018-12-13T03:21:34.989Z,16.70
2018-12-13T03:22:34.931Z,15.90
2018-12-13T03:23:34.892Z,16.50
2018-12-13T03:24:34.821Z,15.40
2018-12-13T03:25:34.846Z,15.90
2018-12-13T03:26:34.713Z,15.50
2018-12-13T03:27:34.659Z,16.20
2018-12-13T03:28:34.606Z,16.40
2018-12-13T03:29:34.551Z,17.00
2018-12-13T03:30:34.496Z,17.30
2018-12-13T03:31:34.442Z,15.80
2018-12-13T03:32:34.412Z,15.80
2018-12-13T03:33:34.332Z,17.00
2018-12-13T03:34:34.428Z,15.30
2018-12-13T03:35:34.222Z,15.30
2018-12-13T03:36:34.171Z,15.80
2018-12-13T03:37:34.117Z,14.80
2018-12-13T03:38:34.061Z,15.70
2018-12-13T03:39:34.005Z,16.00
2018-12-13T03:40:33.950Z,15.50
2018-12-13T03:41:33.899Z,15.70
2018-12-13T03:42:33.845Z,15.70
2018-12-13T03:43:33.935Z,15.50
2018-12-13T03:44:33.732Z,15.20
2018-12-13T03:45:33.679Z,15.50
2018-12-13T03:46:33.627Z,15.00
2018-12-13T03:47:33.569Z,15.10
2018-12-13T03:48:33.519Z,15.50
2018-12-13T03:49:33.460Z,15.10
2018-12-13T03:50:33.431Z,14.90
2018-12-13T03:51:33.352Z,16.00
2018-12-13T03:52:33.433Z,14.70
2018-12-13T03:53:33.241Z,14.80
2018-12-13T03:54:33.188Z,15.00
2018-12-13T03:55:33.133Z,15.40
2018-12-13T03:56:33.079Z,15.80
2018-12-13T03:57:33.022Z,15.10
2018-12-13T03:58:32.970Z,15.70
2018-12-13T03:59:32.914Z,15.00
2018-12-13T04:00:32.861Z,15.30
2018-12-13T04:01:33.042Z,15.50
2018-12-13T04:02:32.752Z,16.00
2018-12-13T04:03:32.698Z,16.40
2018-12-13T04:04:32.643Z,15.90
2018-12-13T04:05:32.588Z,15.00
2018-12-13T04:06:32.533Z,14.90
2018-12-13T04:07:32.476Z,15.40
2018-12-13T04:08:32.453Z,15.10
2018-12-13T04:09:32.379Z,15.70
2018-12-13T04:10:32.544Z,14.70
2018-12-13T04:11:32.370Z,16.10
2018-12-13T04:12:32.206Z,15.90
2018-12-13T04:13:32.158Z,16.20
2018-12-13T04:14:32.096Z,15.40
2018-12-13T04:15:32.041Z,15.70
2018-12-13T04:16:31.986Z,16.30
2018-12-13T04:17:31.962Z,15.40
2018-12-13T04:18:31.875Z,15.10
2018-12-13T04:19:32.055Z,15.60
2018-12-13T04:20:31.768Z,15.90
2018-12-13T04:21:31.715Z,15.60
2018-12-13T04:22:31.658Z,15.30
2018-12-13T04:23:31.604Z,16.50
2018-12-13T04:24:31.559Z,16.60
2018-12-13T04:25:31.495Z,15.70
2018-12-13T04:26:31.466Z,15.40
2018-12-13T04:27:31.387Z,15.70
2018-12-13T04:28:31.564Z,15.60
2018-12-13T04:29:31.277Z,15.70
2018-12-13T04:30:31.225Z,15.80
2018-12-13T04:31:31.165Z,15.70
2018-12-13T04:32:31.112Z,14.90
2018-12-13T04:33:31.060Z,16.00
2018-12-13T04:34:31.002Z,15.40
2018-12-13T04:35:30.972Z,16.00
2018-12-13T04:36:30.893Z,15.70
2018-12-13T04:37:35.292Z,15.60
2018-12-13T04:38:30.784Z,15.80
2018-12-13T04:39:30.729Z,15.30
2018-12-13T04:40:30.675Z,16.10
2018-12-13T04:41:30.620Z,15.70
2018-12-13T04:42:30.569Z,15.80
2018-12-13T04:43:30.512Z,14.90
2018-12-13T04:44:30.455Z,16.40
2018-12-13T04:45:30.402Z,15.50
2018-12-13T04:46:30.373Z,15.80
2018-12-13T04:47:30.291Z,16.10
2018-12-13T04:48:30.464Z,16.00
2018-12-13T04:49:30.184Z,16.00
2018-12-13T04:50:30.129Z,16.00
2018-12-13T04:51:30.073Z,16.20
2018-12-13T04:52:30.020Z,15.80
2018-12-13T04:53:29.965Z,16.40
2018-12-13T04:54:29.911Z,15.90
2018-12-13T04:55:29.880Z,16.40
2018-12-13T04:56:29.801Z,16.40
2018-12-13T04:57:29.961Z,16.40
2018-12-13T04:58:29.692Z,16.40
2018-12-13T04:59:29.642Z,16.30
2018-12-13T05:00:29.584Z,17.00
2018-12-13T05:01:29.527Z,15.60
2018-12-13T05:02:29.473Z,16.30
2018-12-13T05:03:29.418Z,15.40
2018-12-13T05:04:29.395Z,15.40
2018-12-13T05:05:29.308Z,17.00
2018-12-13T05:06:29.482Z,15.70
2018-12-13T05:07:29.200Z,17.10
2018-12-13T05:08:29.146Z,16.00
2018-12-13T05:09:29.088Z,16.10
2018-12-13T05:10:29.035Z,16.20
2018-12-13T05:11:28.979Z,16.60
2018-12-13T05:12:28.923Z,15.60
2018-12-13T05:13:28.902Z,15.90
2018-12-13T05:14:28.815Z,16.10
2018-12-13T05:15:28.800Z,16.50
2018-12-13T05:16:28.706Z,15.70
2018-12-13T05:17:28.973Z,16.00
2018-12-13T05:18:28.596Z,15.90
2018-12-13T05:19:28.543Z,16.10
2018-12-13T05:20:28.490Z,16.20
2018-12-13T05:21:28.433Z,16.50
2018-12-13T05:22:28.378Z,16.70
2018-12-13T05:23:28.322Z,16.00
2018-12-13T05:24:28.292Z,18.20
2018-12-13T05:25:28.214Z,16.40
2018-12-13T05:26:28.379Z,16.00
2018-12-13T05:27:28.114Z,17.80
2018-12-13T05:28:28.050Z,17.10
2018-12-13T05:29:27.995Z,17.40
2018-12-13T05:30:27.943Z,16.00
2018-12-13T05:31:27.886Z,17.40
2018-12-13T05:32:27.831Z,16.50
2018-12-13T05:33:27.807Z,16.50
2018-12-13T05:34:27.731Z,17.00
2018-12-13T05:35:27.888Z,17.50
2018-12-13T05:36:27.613Z,17.60
2018-12-13T05:37:27.560Z,17.00
2018-12-13T05:38:27.502Z,16.70
2018-12-13T05:39:27.448Z,17.30
2018-12-13T05:40:27.395Z,17.10
2018-12-13T05:41:27.336Z,17.80
2018-12-13T05:42:27.309Z,17.50
2018-12-13T05:43:27.229Z,17.40
2018-12-13T05:44:27.241Z,17.30
2018-12-13T05:45:27.120Z,16.50
2018-12-13T05:46:27.287Z,16.70
2018-12-13T05:47:27.009Z,16.90
2018-12-13T05:48:26.956Z,17.20
2018-12-13T05:49:26.900Z,17.20
2018-12-13T05:50:26.847Z,16.90
2018-12-13T05:51:26.790Z,17.00
2018-12-13T05:52:26.736Z,16.90
2018-12-13T05:53:26.708Z,17.10
2018-12-13T05:54:26.628Z,16.30
2018-12-13T05:55:26.803Z,17.60
2018-12-13T05:56:26.517Z,17.30
2018-12-13T05:57:26.461Z,17.70
2018-12-13T05:58:26.407Z,17.60
2018-12-13T05:59:26.352Z,16.90
2018-12-13T06:00:26.299Z,18.20
2018-12-13T06:01:26.242Z,18.50
2018-12-13T06:02:26.219Z,17.70
2018-12-13T06:03:26.224Z,17.40
2018-12-13T06:04:26.300Z,17.70
2018-12-13T06:05:26.031Z,18.10
2018-12-13T06:06:25.970Z,17.20
2018-12-13T06:07:25.917Z,18.90
2018-12-13T06:08:25.861Z,18.00
2018-12-13T06:09:25.805Z,19.10
2018-12-13T06:10:25.750Z,18.20
2018-12-13T06:11:25.695Z,17.50
2018-12-13T06:12:25.641Z,17.50
2018-12-13T06:13:25.594Z,17.80
2018-12-13T06:14:25.533Z,18.40
2018-12-13T06:15:25.516Z,18.00
2018-12-13T06:16:25.422Z,18.20
2018-12-13T06:17:25.598Z,17.90
2018-12-13T06:18:25.314Z,17.60
2018-12-13T06:19:26.792Z,18.80
2018-12-13T06:20:25.205Z,18.30
2018-12-13T06:21:25.156Z,18.20
2018-12-13T06:22:25.097Z,18.40
2018-12-13T06:23:25.043Z,18.00
2018-12-13T06:24:24.993Z,18.50
2018-12-13T06:25:24.929Z,19.10
2018-12-13T06:26:24.878Z,18.90
2018-12-13T06:27:24.826Z,18.20
2018-12-13T06:28:24.767Z,18.00
2018-12-13T06:29:24.714Z,18.20
2018-12-13T06:30:24.660Z,19.10
2018-12-13T06:31:24.611Z,18.60
2018-12-13T06:32:24.549Z,18.70
2018-12-13T06:33:24.914Z,18.50
2018-12-13T06:34:24.439Z,18.90
2018-12-13T06:35:24.381Z,18.70
2018-12-13T06:36:24.365Z,18.40
2018-12-13T06:37:24.276Z,19.10
2018-12-13T06:38:24.424Z,18.70
2018-12-13T06:39:24.169Z,17.30
2018-12-13T06:40:24.116Z,17.80
2018-12-13T06:41:24.060Z,19.30
2018-12-13T06:42:24.036Z,19.50
2018-12-13T06:43:23.951Z,19.40
2018-12-13T06:44:23.906Z,18.20
2018-12-13T06:45:23.842Z,18.90
2018-12-13T06:46:24.497Z,17.70
2018-12-13T06:47:23.726Z,18.50
2018-12-13T06:48:23.670Z,18.70
2018-12-13T06:49:23.619Z,18.20
2018-12-13T06:50:23.566Z,18.50
2018-12-13T06:51:23.512Z,18.70
2018-12-13T06:52:23.701Z,18.00
2018-12-13T06:53:23.440Z,18.10
2018-12-13T06:54:23.368Z,18.20
2018-12-13T06:55:23.362Z,18.50
2018-12-13T06:56:23.244Z,18.40
2018-12-13T06:57:23.190Z,18.80
2018-12-13T06:58:23.122Z,19.10
2018-12-13T06:59:23.069Z,17.90
2018-12-13T07:00:23.014Z,18.10
2018-12-13T07:01:22.986Z,19.20
2018-12-13T07:02:22.926Z,18.80
2018-12-13T07:03:22.848Z,18.30
2018-12-13T07:04:22.795Z,19.50
2018-12-13T07:05:22.741Z,19.50
2018-12-13T07:06:22.688Z,18.60
2018-12-13T07:07:33.420Z,18.30
2018-12-13T07:08:22.579Z,18.60
2018-12-13T07:09:22.529Z,18.70
2018-12-13T07:10:22.466Z,18.50
2018-12-13T07:11:22.410Z,19.20
2018-12-13T07:12:22.366Z,19.10
2018-12-13T07:13:22.301Z,17.90
2018-12-13T07:14:22.289Z,18.10
2018-12-13T07:15:22.190Z,19.20
2018-12-13T07:16:22.140Z,19.10
2018-12-13T07:17:22.083Z,18.80
2018-12-13T07:18:22.127Z,19.60
2018-12-13T07:19:21.977Z,19.30
2018-12-13T07:20:21.930Z,19.90
2018-12-13T07:21:21.864Z,19.30
2018-12-13T07:23:53.864Z,20.00
2018-12-13T07:24:53.762Z,20.00
2018-12-13T07:25:53.714Z,19.60
2018-12-13T07:26:53.662Z,19.60
2018-12-13T07:27:53.603Z,20.10
2018-12-13T07:28:53.566Z,20.40
2018-12-13T07:29:53.494Z,20.40
2018-12-13T07:30:53.448Z,20.90
2018-12-13T07:31:53.381Z,20.80
2018-12-13T07:32:53.331Z,20.60
2018-12-13T07:33:53.274Z,20.20
2018-12-13T07:34:53.225Z,19.40
2018-12-13T07:35:53.165Z,19.40
2018-12-13T07:36:53.105Z,20.40
2018-12-13T07:37:53.061Z,20.10
2018-12-13T07:38:52.999Z,21.10
2018-12-13T07:39:52.948Z,20.00
2018-12-13T07:40:52.891Z,19.60
2018-12-13T07:41:52.836Z,19.80
2018-12-13T07:42:52.787Z,20.80
2018-12-13T07:43:52.731Z,20.50
2018-12-13T07:44:52.670Z,20.90
2018-12-13T07:45:52.615Z,20.30
2018-12-13T07:46:52.562Z,19.00
2018-12-13T07:47:52.507Z,19.70
2018-12-13T07:48:56.469Z,20.80
2018-12-13T07:49:52.396Z,20.90
2018-12-13T07:50:52.342Z,20.00
2018-12-13T07:51:52.287Z,21.30
2018-12-13T07:52:52.232Z,20.40
2018-12-13T07:55:33.733Z,20.50
2018-12-13T07:56:33.710Z,19.30
2018-12-13T07:57:33.600Z,19.80
2018-12-13T07:58:33.542Z,20.50
2018-12-13T07:59:33.500Z,20.90
2018-12-13T08:00:33.435Z,20.60
2018-12-13T08:01:33.397Z,19.50
2018-12-13T08:02:33.324Z,20.80
2018-12-13T08:03:33.271Z,19.70
2018-12-13T08:04:33.213Z,19.50
2018-12-13T08:05:33.366Z,19.80
2018-12-13T08:06:33.106Z,20.90
2018-12-13T08:07:33.055Z,20.20
2018-12-13T08:08:32.999Z,21.00
2018-12-13T08:09:32.947Z,20.20
2018-12-13T08:10:32.890Z,19.80
2018-12-13T08:11:32.840Z,21.10
2018-12-13T08:12:32.781Z,21.50
2018-12-13T08:13:32.726Z,21.20
2018-12-13T08:14:32.666Z,20.50
2018-12-13T08:15:32.611Z,20.40
2018-12-13T08:16:32.557Z,21.30
2018-12-13T08:17:32.506Z,21.20
2018-12-13T08:18:32.454Z,21.70
2018-12-13T08:19:32.387Z,20.60
2018-12-13T08:20:32.347Z,21.20
2018-12-13T08:21:32.285Z,21.20
2018-12-13T08:22:32.230Z,21.00
2018-12-13T08:23:32.180Z,21.80
2018-12-13T08:24:32.130Z,20.90
2018-12-13T08:25:32.119Z,23.50
2018-12-13T08:26:32.022Z,21.70
2018-12-13T08:27:31.971Z,22.90
2018-12-13T08:28:31.905Z,21.90
2018-12-13T08:29:31.851Z,22.80
2018-12-13T08:30:32.028Z,22.90
2018-12-13T08:33:08.283Z,22.20
2018-12-13T08:34:08.202Z,21.80
2018-12-13T08:35:08.243Z,21.90
2018-12-13T08:36:08.107Z,22.80
2018-12-13T08:37:08.038Z,22.30
2018-12-13T08:38:07.990Z,21.10
2018-12-13T08:39:07.928Z,20.90
2018-12-13T08:40:07.881Z,21.50
2018-12-13T08:41:07.818Z,21.50
2018-12-13T08:42:07.765Z,21.30
2018-12-13T08:43:07.714Z,21.50
2018-12-13T08:44:07.658Z,23.80
2018-12-13T08:45:07.620Z,22.10
2018-12-13T08:46:07.549Z,22.10
2018-12-13T08:47:07.683Z,21.50
2018-12-13T08:48:07.448Z,23.20
2018-12-13T08:49:07.390Z,22.90
2018-12-13T08:50:07.330Z,22.60
2018-12-13T08:51:07.279Z,22.40
2018-12-13T08:52:07.219Z,23.00
2018-12-13T08:53:07.172Z,22.20
2018-12-13T08:54:07.119Z,22.80
2018-12-13T08:55:07.057Z,23.80
2018-12-13T08:56:07.009Z,23.30
2018-12-13T08:57:06.964Z,23.20
2018-12-13T08:58:06.892Z,22.50
2018-12-13T08:59:06.839Z,23.30
2018-12-13T09:00:06.781Z,22.90
2018-12-13T09:01:06.733Z,22.40
2018-12-13T09:02:06.674Z,23.50
2018-12-13T09:03:06.620Z,23.90
2018-12-13T09:04:06.569Z,22.50
2018-12-13T09:05:06.570Z,22.60
2018-12-13T09:06:06.451Z,24.40
2018-12-13T09:07:06.400Z,24.00
2018-12-13T09:08:06.357Z,24.90
2018-12-13T09:09:06.304Z,24.60
2018-12-13T09:10:06.242Z,25.00
2018-12-13T09:11:06.181Z,24.00
2018-12-13T09:12:06.294Z,24.80
2018-12-13T09:13:06.082Z,24.20
2018-12-13T09:14:06.054Z,24.80
2018-12-13T09:15:05.970Z,25.00
2018-12-13T09:16:05.941Z,24.70
2018-12-13T09:17:05.894Z,24.70
2018-12-13T09:18:05.828Z,24.70
2018-12-13T09:19:05.751Z,24.60
2018-12-13T09:20:05.697Z,24.10
2018-12-13T09:21:06.148Z,24.50
2018-12-13T09:22:05.589Z,24.90
2018-12-13T09:23:05.525Z,23.60
2018-12-13T09:24:05.478Z,24.90
2018-12-13T09:25:05.422Z,25.70
2018-12-13T09:26:05.367Z,25.20
2018-12-13T09:27:05.310Z,24.10
2018-12-13T09:28:05.261Z,24.60
2018-12-13T09:29:05.194Z,24.50
2018-12-13T09:30:05.146Z,23.30
2018-12-13T09:31:05.091Z,25.20
2018-12-13T09:32:05.038Z,25.90
2018-12-13T09:33:04.985Z,24.60
2018-12-13T09:34:04.968Z,24.20
2018-12-13T09:35:04.904Z,24.20
2018-12-13T09:36:04.833Z,23.50
2018-12-13T09:37:04.767Z,24.90
2018-12-13T09:38:04.720Z,24.00
2018-12-13T09:39:04.664Z,24.00
2018-12-13T09:40:04.601Z,24.20
2018-12-13T09:41:04.550Z,25.10
2018-12-13T09:42:04.617Z,23.80
2018-12-13T09:43:04.451Z,24.70
2018-12-13T09:44:04.392Z,24.20
2018-12-13T09:45:04.496Z,24.20
2018-12-13T09:46:04.267Z,22.90
2018-12-13T09:47:04.222Z,23.10
2018-12-13T09:48:04.180Z,23.40
2018-12-13T09:49:04.119Z,23.40
2018-12-13T09:50:04.057Z,22.50
2018-12-13T09:51:04.004Z,23.50
2018-12-13T09:52:04.012Z,22.60
2018-12-13T09:53:03.903Z,23.30
2018-12-13T09:54:03.861Z,22.70
2018-12-13T09:55:05.779Z,23.30
2018-12-13T09:56:03.736Z,22.40
2018-12-13T09:57:03.672Z,22.40
2018-12-13T09:58:03.731Z,21.90
2018-12-13T09:59:03.570Z,21.70
2018-12-13T10:00:03.523Z,21.30
2018-12-13T10:01:03.453Z,22.00
2018-12-13T10:02:03.422Z,22.20
2018-12-13T10:03:03.361Z,20.90
2018-12-13T10:04:03.304Z,20.60
2018-12-13T10:05:03.246Z,20.40
2018-12-13T10:06:03.220Z,21.10
2018-12-13T10:07:03.156Z,22.20
2018-12-13T10:08:03.390Z,21.50
2018-12-13T10:09:03.071Z,22.10
2018-12-13T10:10:02.965Z,21.70
2018-12-13T10:11:02.995Z,20.30
2018-12-13T10:12:02.867Z,22.10
2018-12-13T10:13:02.842Z,21.60
2018-12-13T10:14:02.759Z,21.00
2018-12-13T10:15:02.741Z,21.60
2018-12-13T10:16:02.689Z,21.40
2018-12-13T10:18:34.751Z,21.90
2018-12-13T10:19:34.548Z,20.50
2018-12-13T10:20:34.610Z,20.30
2018-12-13T10:21:34.449Z,21.60
2018-12-13T10:22:34.386Z,20.60
2018-12-13T10:23:34.328Z,20.60
2018-12-13T10:24:34.302Z,20.20
2018-12-13T10:25:34.217Z,20.50
2018-12-13T10:26:34.166Z,20.70
2018-12-13T10:27:34.111Z,19.50
2018-12-13T10:28:34.093Z,20.50
2018-12-13T10:29:34.004Z,19.80
2018-12-13T10:30:33.949Z,19.80
2018-12-13T10:31:33.894Z,19.50
2018-12-13T10:32:33.851Z,19.50
2018-12-13T10:33:34.383Z,19.40
2018-12-13T10:34:33.739Z,18.60
2018-12-13T10:35:33.678Z,18.30
2018-12-13T10:36:33.625Z,19.20
2018-12-13T10:37:33.575Z,17.80
2018-12-13T10:38:33.518Z,16.40
2018-12-13T10:39:33.470Z,17.50
2018-12-13T10:40:33.408Z,17.80
2018-12-13T10:41:33.354Z,18.60
2018-12-13T10:42:33.363Z,17.30
2018-12-13T10:43:33.245Z,17.20
2018-12-13T10:44:33.198Z,17.10
2018-12-13T10:45:33.164Z,18.10
2018-12-13T10:46:33.084Z,17.90
2018-12-13T10:47:33.023Z,17.10
2018-12-13T10:48:32.999Z,17.20
2018-12-13T10:49:32.922Z,17.60
2018-12-13T10:50:32.869Z,18.00
2018-12-13T10:51:33.043Z,16.30
2018-12-13T10:52:32.759Z,17.70
2018-12-13T10:53:32.708Z,18.20
2018-12-13T10:54:32.660Z,18.20
2018-12-13T10:55:32.599Z,18.20
2018-12-13T10:56:32.552Z,18.60
2018-12-13T10:57:32.493Z,18.40
2018-12-13T10:58:32.442Z,18.90
2018-12-13T10:59:32.389Z,18.20
2018-12-13T11:00:32.330Z,17.60
2018-12-13T11:01:32.286Z,17.30
2018-12-13T11:02:32.222Z,16.80
2018-12-13T11:03:32.167Z,16.10
2018-12-13T11:04:32.114Z,16.10
2018-12-13T11:05:32.060Z,17.00
2018-12-13T11:06:32.005Z,17.40
2018-12-13T11:07:31.958Z,17.50
2018-12-13T11:08:31.897Z,16.30
2018-12-13T11:09:31.839Z,17.00
2018-12-13T11:10:31.793Z,16.60
2018-12-13T11:11:31.751Z,17.80
2018-12-13T11:12:31.857Z,16.70
2018-12-13T11:13:31.638Z,17.60
2018-12-13T11:14:31.576Z,16.40
2018-12-13T11:15:31.524Z,16.80
2018-12-13T11:16:31.469Z,16.50
2018-12-13T11:17:31.414Z,16.00
2018-12-13T11:18:31.360Z,16.90
2018-12-13T11:19:31.304Z,16.70
2018-12-13T11:20:31.250Z,14.40
2018-12-13T11:21:31.211Z,15.70
2018-12-13T11:22:31.149Z,14.70
2018-12-13T11:23:31.137Z,15.00
2018-12-13T11:24:31.046Z,14.80
2018-12-13T11:25:30.987Z,17.00
2018-12-13T11:26:30.932Z,16.70
2018-12-13T11:27:30.890Z,17.50
2018-12-13T11:28:30.825Z,18.50
2018-12-13T11:29:30.770Z,18.00
2018-12-13T11:30:30.717Z,17.90
2018-12-13T11:31:30.662Z,17.60
2018-12-13T11:32:30.609Z,17.80
2018-12-13T11:33:30.572Z,18.20
2018-12-13T11:34:30.500Z,18.50
2018-12-13T11:35:30.455Z,18.50
2018-12-13T11:36:30.418Z,18.50
2018-12-13T11:37:30.342Z,18.30
2018-12-13T11:38:30.287Z,18.60
2018-12-13T11:39:30.233Z,17.50
2018-12-13T11:40:30.194Z,18.40
2018-12-13T11:41:33.735Z,18.20
2018-12-13T11:42:30.105Z,18.50
2018-12-13T11:43:30.016Z,18.80
2018-12-13T11:44:29.962Z,18.50
2018-12-13T11:45:29.944Z,18.90
2018-12-13T11:46:29.861Z,18.30
2018-12-13T11:47:29.804Z,18.00
2018-12-13T11:48:29.789Z,19.00
2018-12-13T11:49:29.856Z,20.20
2018-12-13T11:50:29.645Z,19.80
2018-12-13T11:51:29.581Z,19.80
2018-12-13T11:52:29.544Z,18.70
2018-12-13T11:53:29.500Z,20.00
2018-12-13T11:54:29.430Z,19.60
2018-12-13T11:55:29.370Z,19.00
2018-12-13T11:56:29.322Z,19.50
2018-12-13T11:57:29.267Z,18.00
2018-12-13T11:58:29.259Z,18.10
2018-12-13T11:59:29.156Z,18.50
2018-12-13T12:00:29.109Z,18.50
2018-12-13T12:01:29.053Z,18.30
2018-12-13T12:02:28.998Z,18.50
2018-12-13T12:03:28.952Z,18.90
2018-12-13T12:04:28.893Z,18.40
2018-12-13T12:05:28.834Z,18.90
2018-12-13T12:06:28.789Z,18.50
2018-12-13T12:07:28.734Z,19.20
2018-12-13T12:08:28.695Z,19.30
2018-12-13T12:09:28.634Z,18.00
2018-12-13T12:10:28.595Z,18.90
2018-12-13T12:11:28.550Z,18.70
2018-12-13T12:12:28.482Z,18.30
2018-12-13T12:13:28.425Z,18.90
2018-12-13T12:14:28.374Z,19.10
2018-12-13T12:15:28.326Z,18.00
2018-12-13T12:16:28.267Z,19.20
2018-12-13T12:17:28.218Z,17.30
2018-12-13T12:18:28.172Z,17.20
2018-12-13T12:19:28.092Z,16.40
2018-12-13T12:20:28.049Z,17.40
2018-12-13T12:21:27.983Z,16.90
2018-12-13T12:22:27.940Z,17.00
2018-12-13T12:23:27.870Z,17.30
2018-12-13T12:24:27.823Z,17.00
2018-12-13T12:25:27.757Z,17.60
2018-12-13T12:26:27.705Z,17.10
2018-12-13T12:27:27.670Z,18.10
2018-12-13T12:28:27.608Z,17.90
2018-12-13T12:29:27.552Z,17.40
2018-12-13T12:30:27.491Z,16.60
2018-12-13T12:31:27.462Z,17.20
2018-12-13T12:32:27.395Z,18.60
2018-12-13T12:33:27.337Z,18.10
2018-12-13T12:34:27.335Z,16.90
2018-12-13T12:35:27.243Z,17.60
2018-12-13T12:36:27.177Z,17.00
2018-12-13T12:37:27.111Z,17.60
2018-12-13T12:38:27.084Z,17.80
2018-12-13T12:39:27.083Z,16.80
2018-12-13T12:40:26.967Z,17.50
2018-12-13T12:41:26.913Z,16.90
2018-12-13T12:42:26.865Z,18.20
2018-12-13T12:43:26.817Z,16.80
2018-12-13T12:44:26.765Z,18.30
2018-12-13T12:45:26.697Z,17.80
2018-12-13T12:46:26.674Z,17.00
2018-12-13T12:47:26.602Z,18.40
2018-12-13T12:48:26.531Z,18.50
2018-12-13T12:49:26.486Z,18.10
2018-12-13T12:50:26.412Z,18.50
2018-12-13T12:51:26.360Z,19.20
2018-12-13T12:52:26.332Z,19.30
2018-12-13T12:53:26.282Z,19.00
2018-12-13T12:54:26.200Z,18.50
2018-12-13T12:55:26.211Z,18.60
2018-12-13T12:56:26.107Z,18.50
2018-12-13T12:57:26.035Z,19.00
2018-12-13T12:58:25.998Z,18.10